Time;durP1;ratioP1;P1;durP2;ratioP2;P2;SDS_P1;SDS_P2;PMS_P1;PMS_P2;Temp;Humidity;BMP_temperature;BMP_pressure;BME280_temperature;BME280_humidity;BME280_pressure;Samples;Min_cycle;Max_cycle;Signal;HPM_P1;HPM_P2
2022/02/16 00:00:00;;;;;;;35.45;17.20;;;;;;;2.83;77.42;92650.44;2051027;70;20527;-68
2022/02/16 00:02:25;;;;;;;35.35;16.23;;;;;;;2.98;75.76;92645.59;2051126;70;20153;-69
2022/02/16 00:04:51;;;;;;;32.90;16.98;;;;;;;2.80;74.65;92644.72;2051233;70;20166;-69
2022/02/16 00:07:17;;;;;;;37.28;18.15;;;;;;;2.83;75.50;92642.09;2051224;70;20151;-68
2022/02/16 00:09:43;;;;;;;36.90;18.50;;;;;;;2.77;75.18;92643.06;2051150;70;20256;-69
2022/02/16 00:12:08;;;;;;;37.90;18.60;;;;;;;2.89;75.07;92648.97;2051364;70;20139;-68
2022/02/16 00:14:34;;;;;;;33.25;17.10;;;;;;;2.78;75.64;92638.97;2051474;70;20155;-69
2022/02/16 00:17:00;;;;;;;34.78;17.42;;;;;;;2.86;75.18;92638.22;2051259;70;20627;-72
2022/02/16 00:19:26;;;;;;;36.60;17.85;;;;;;;2.44;75.59;92641.50;2051549;70;20158;-71
2022/02/16 00:21:51;;;;;;;37.70;18.15;;;;;;;2.67;75.73;92639.38;2051444;70;20499;-69
2022/02/16 00:24:18;;;;;;;32.33;17.00;;;;;;;2.68;75.06;92638.09;2051356;70;20521;-69
2022/02/16 00:26:44;;;;;;;32.72;15.90;;;;;;;2.66;73.88;92635.13;2051262;70;20150;-69
2022/02/16 00:29:13;;;;;;;31.58;14.80;;;;;;;2.62;74.66;92634.03;2048156;70;20150;-70
2022/02/16 00:31:39;;;;;;;30.27;14.82;;;;;;;2.67;74.24;92642.19;2048216;70;20229;-68
2022/02/16 00:34:06;;;;;;;27.95;13.82;;;;;;;2.67;73.11;92641.44;2051710;70;20249;-68
2022/02/16 00:36:31;;;;;;;36.80;17.38;;;;;;;2.58;73.35;92642.75;2051463;70;20178;-68
2022/02/16 00:38:58;;;;;;;32.45;16.20;;;;;;;2.47;73.99;92646.66;2051316;70;20209;-70
2022/02/16 00:41:24;;;;;;;32.72;16.00;;;;;;;2.50;74.28;92653.88;2048130;70;20142;-68
2022/02/16 00:43:49;;;;;;;33.40;16.95;;;;;;;2.54;74.09;92647.97;2050967;70;20145;-68
2022/02/16 00:46:15;;;;;;;33.08;15.98;;;;;;;2.41;74.65;92648.91;2051270;70;20161;-68
2022/02/16 00:48:42;;;;;;;33.05;16.30;;;;;;;2.45;74.02;92646.50;2048042;70;20138;-69
2022/02/16 00:51:07;;;;;;;29.83;14.23;;;;;;;2.39;73.99;92648.00;2047998;70;20142;-68
2022/02/16 00:53:34;;;;;;;25.52;13.48;;;;;;;2.40;73.64;92646.69;2047995;70;20205;-69
2022/02/16 00:56:00;;;;;;;20.98;10.32;;;;;;;2.28;73.80;92649.13;2048046;70;20242;-68
2022/02/16 00:58:26;;;;;;;29.95;15.30;;;;;;;2.12;74.62;92645.63;2048157;70;20166;-68
2022/02/16 01:00:51;;;;;;;26.33;13.30;;;;;;;2.09;74.37;92646.75;2047917;70;20210;-71
2022/02/16 01:03:17;;;;;;;21.38;11.80;;;;;;;2.02;74.60;92641.94;2048073;70;20150;-72
2022/02/16 01:05:48;;;;;;;29.60;14.95;;;;;;;1.65;76.34;92663.59;2045422;70;20138;-72
2022/02/16 01:08:14;;;;;;;26.20;12.77;;;;;;;1.84;74.93;92654.19;2048214;70;20173;-68
2022/02/16 01:10:43;;;;;;;27.45;13.10;;;;;;;1.96;74.51;92656.00;2051438;70;20130;-69
2022/02/16 01:13:11;;;;;;;25.13;12.63;;;;;;;1.88;73.58;92657.28;2048021;70;20182;-69
2022/02/16 01:15:38;;;;;;;21.83;10.95;;;;;;;1.93;73.44;92656.41;2047855;70;20162;-68
2022/02/16 01:18:04;;;;;;;26.85;13.18;;;;;;;1.77;73.97;92658.41;2048239;70;20881;-71
2022/02/16 01:20:44;;;;;;;29.88;14.23;;;;;;;1.81;73.46;92649.72;2048110;70;20146;-68
2022/02/16 01:23:12;;;;;;;25.48;12.80;;;;;;;1.79;73.18;92655.84;2048184;70;20257;-68
2022/02/16 01:25:39;;;;;;;27.77;12.90;;;;;;;1.66;73.66;92656.75;2050951;70;20146;-71
2022/02/16 01:28:12;;;;;;;37.97;14.77;;;;;;;1.66;74.09;92653.97;2047978;70;20134;-69
2022/02/16 01:30:41;;;;;;;25.38;13.43;;;;;;;1.66;73.67;92656.03;2051164;70;20257;-71
2022/02/16 01:33:20;;;;;;;24.65;12.63;;;;;;;1.61;73.86;92654.91;2047913;70;20229;-69
2022/02/16 01:35:54;;;;;;;28.55;14.77;;;;;;;1.70;73.53;92659.16;2051457;70;20154;-72
2022/02/16 01:38:21;;;;;;;26.48;13.32;;;;;;;1.72;74.23;92651.75;2047926;70;20174;-69
2022/02/16 01:41:14;;;;;;;24.85;12.05;;;;;;;1.69;73.75;92652.13;2050989;70;20181;-69
2022/02/16 01:43:48;;;;;;;22.20;11.00;;;;;;;1.70;73.51;92642.50;2047474;70;20142;-71
2022/02/16 01:46:14;;;;;;;21.02;10.45;;;;;;;1.62;73.49;92644.53;2047446;70;20685;-70
2022/02/16 01:48:41;;;;;;;17.42;9.38;;;;;;;1.63;73.78;92643.97;2050732;70;20233;-71
2022/02/16 01:51:07;;;;;;;15.88;8.50;;;;;;;1.57;73.18;92654.53;2050604;70;20216;-68
2022/02/16 01:53:38;;;;;;;17.90;9.73;;;;;;;1.55;72.61;92643.22;2047800;70;20233;-70
2022/02/16 01:56:04;;;;;;;18.13;9.63;;;;;;;1.58;71.99;92647.69;2053240;70;20174;-69
2022/02/16 01:58:33;;;;;;;18.98;10.27;;;;;;;1.29;72.77;92649.88;2053167;70;20150;-68
2022/02/16 02:01:11;;;;;;;22.50;11.02;;;;;;;1.21;73.85;92652.63;2051409;70;20242;-69
2022/02/16 02:03:37;;;;;;;19.77;10.13;;;;;;;1.24;73.59;92648.00;2053759;70;20621;-69
2022/02/16 02:06:12;;;;;;;22.05;11.23;;;;;;;1.35;72.37;92655.97;2048264;70;20326;-69
2022/02/16 02:08:39;;;;;;;20.52;11.02;;;;;;;1.13;74.84;92645.56;2053801;70;20162;-69
2022/02/16 02:11:06;;;;;;;20.10;10.98;;;;;;;1.22;72.08;92643.00;2051208;70;20150;-69
2022/02/16 02:13:52;;;;;;;19.60;10.07;;;;;;;0.87;74.60;92660.47;2048400;70;20158;-68
2022/02/16 02:16:21;;;;;;;21.97;11.40;;;;;;;0.99;74.17;92658.84;2048397;70;20166;-69
2022/02/16 02:18:46;;;;;;;18.95;10.20;;;;;;;1.09;73.58;92659.06;2053783;70;20161;-70
2022/02/16 02:21:19;;;;;;;18.23;10.00;;;;;;;1.23;72.38;92671.47;2053590;70;20178;-68
2022/02/16 02:23:49;;;;;;;16.48;9.52;;;;;;;1.15;73.20;92659.66;2048076;70;20150;-69
2022/02/16 02:26:15;;;;;;;15.50;8.73;;;;;;;1.16;72.74;92658.34;2048226;70;20551;-70
2022/02/16 02:28:42;;;;;;;15.50;8.60;;;;;;;1.17;71.73;92657.78;2050950;70;20190;-70
2022/02/16 02:31:08;;;;;;;16.10;8.07;;;;;;;1.17;72.24;92663.34;2048363;70;20201;-69
2022/02/16 02:33:36;;;;;;;15.05;8.60;;;;;;;1.12;71.70;92660.72;2051706;70;20150;-69
2022/02/16 02:36:03;;;;;;;20.25;8.80;;;;;;;0.70;75.27;92653.38;2051773;70;20213;-71
2022/02/16 02:38:28;;;;;;;14.55;7.97;;;;;;;1.03;73.94;92653.69;2050921;70;20162;-69
2022/02/16 02:40:56;;;;;;;12.52;7.00;;;;;;;1.04;73.79;92654.41;2051668;70;20154;-68
2022/02/16 02:43:25;;;;;;;15.48;7.97;;;;;;;0.79;74.27;92646.59;2051082;70;20157;-69
2022/02/16 02:45:52;;;;;;;12.95;7.03;;;;;;;0.86;74.09;92645.13;2048106;70;20209;-68
2022/02/16 02:48:21;;;;;;;12.38;6.53;;;;;;;1.05;72.06;92642.78;2054000;69;20212;-68
2022/02/16 02:50:47;;;;;;;11.85;5.75;;;;;;;0.92;72.59;92642.94;2053814;70;20176;-70
2022/02/16 02:53:13;;;;;;;8.55;4.80;;;;;;;0.96;73.33;92630.22;2051224;70;20518;-68
2022/02/16 02:55:39;;;;;;;11.90;6.40;;;;;;;0.41;74.92;92636.09;2048329;70;20221;-69
2022/02/16 02:58:05;;;;;;;13.27;7.22;;;;;;;0.49;75.35;92647.19;2048380;70;20146;-72
2022/02/16 03:00:31;;;;;;;14.73;7.88;;;;;;;0.57;74.66;92633.38;2048383;70;20185;-68
2022/02/16 03:02:58;;;;;;;11.93;6.32;;;;;;;0.73;73.50;92627.38;2051075;70;20677;-68
2022/02/16 03:05:23;;;;;;;10.57;5.95;;;;;;;0.77;72.57;92624.22;2051616;70;20199;-71
2022/02/16 03:07:50;;;;;;;8.77;5.13;;;;;;;0.79;73.07;92627.19;2054055;70;20157;-71
2022/02/16 03:10:17;;;;;;;5.47;3.50;;;;;;;0.99;72.94;92625.56;2048235;70;20146;-71
2022/02/16 03:12:43;;;;;;;5.38;3.33;;;;;;;0.89;74.02;92628.16;2048586;70;20196;-71
2022/02/16 03:15:10;;;;;;;3.75;2.58;;;;;;;0.96;73.04;92626.66;2048500;70;20200;-69
2022/02/16 03:17:41;;;;;;;8.00;4.43;;;;;;;0.37;75.40;92626.66;2053353;69;20178;-67
2022/02/16 03:20:08;;;;;;;10.52;5.18;;;;;;;0.61;74.12;92626.19;2048102;70;20162;-67
2022/02/16 03:22:37;;;;;;;8.02;4.72;;;;;;;0.78;72.56;92631.25;2052746;69;20145;-68
2022/02/16 03:25:07;;;;;;;6.82;4.50;;;;;;;0.85;72.34;92624.25;2044681;70;20229;-68
2022/02/16 03:27:33;;;;;;;8.25;4.10;;;;;;;0.81;72.10;92612.78;2044779;70;20166;-67
2022/02/16 03:30:08;;;;;;;6.50;3.63;;;;;;;0.82;72.29;92617.75;2049355;70;20143;-68
2022/02/16 03:32:40;;;;;;;5.03;3.45;;;;;;;0.91;72.28;92622.78;2050537;70;20168;-69
2022/02/16 03:35:06;;;;;;;4.63;2.90;;;;;;;0.87;72.24;92627.19;2046826;70;20609;-69
2022/02/16 03:37:32;;;;;;;5.38;3.47;;;;;;;0.81;72.67;92627.38;2048005;70;20166;-68
2022/02/16 03:39:57;;;;;;;8.35;3.28;;;;;;;0.91;72.14;92624.81;2048509;70;20169;-68
2022/02/16 03:42:23;;;;;;;4.03;2.70;;;;;;;0.82;72.09;92623.31;2044694;70;20131;-68
2022/02/16 03:44:51;;;;;;;8.10;4.13;;;;;;;0.14;74.43;92627.28;2048281;70;20257;-67
2022/02/16 03:47:19;;;;;;;7.63;4.50;;;;;;;0.54;73.55;92621.34;2047591;70;20189;-70
2022/02/16 03:49:46;;;;;;;7.70;4.50;;;;;;;0.59;72.95;92622.50;2044778;70;20538;-68
2022/02/16 03:52:14;;;;;;;5.45;3.58;;;;;;;0.75;72.68;92622.00;2044676;70;20209;-67
2022/02/16 03:54:39;;;;;;;2.58;1.80;;;;;;;0.93;72.05;92616.69;2044707;70;20596;-73
2022/02/16 03:57:06;;;;;;;2.50;1.40;;;;;;;1.10;70.98;92607.84;2044956;70;20173;-69
2022/02/16 03:59:31;;;;;;;2.15;1.60;;;;;;;1.15;71.13;92610.47;2044996;70;20150;-69
2022/02/16 04:02:26;;;;;;;1.25;1.13;;;;;;;1.27;70.62;92610.84;2046592;70;20209;-69
2022/02/16 04:04:52;;;;;;;6.97;3.88;;;;;;;1.17;70.68;92607.13;2048103;70;20150;-69
2022/02/16 04:07:18;;;;;;;8.52;3.90;;;;;;;0.73;72.54;92619.06;2044818;70;20151;-67
2022/02/16 04:09:45;;;;;;;2.50;1.90;;;;;;;0.88;71.11;92623.16;2044773;70;20146;-68
2022/02/16 04:12:10;;;;;;;3.47;2.33;;;;;;;0.63;73.06;92618.06;2044814;70;20177;-70
2022/02/16 04:14:36;;;;;;;4.82;2.28;;;;;;;0.95;71.45;92620.38;2048161;70;20161;-69
2022/02/16 04:17:02;;;;;;;3.78;2.50;;;;;;;1.15;70.26;92627.09;2048246;70;20154;-70
2022/02/16 04:19:28;;;;;;;2.80;2.10;;;;;;;1.21;69.82;92615.84;2044746;70;20214;-69
2022/02/16 04:21:53;;;;;;;1.98;1.33;;;;;;;1.04;72.03;92619.13;2044669;70;20158;-68
2022/02/16 04:24:20;;;;;;;3.50;2.35;;;;;;;0.79;72.30;92616.09;2044644;70;20170;-69
2022/02/16 04:26:46;;;;;;;4.88;2.78;;;;;;;0.99;71.06;92620.78;2044697;70;20146;-68
2022/02/16 04:29:13;;;;;;;3.90;2.55;;;;;;;0.95;71.52;92619.66;2048047;70;20155;-70
2022/02/16 04:31:41;;;;;;;3.92;2.88;;;;;;;1.07;71.33;92615.25;2047185;70;20285;-70
2022/02/16 04:34:07;;;;;;;3.10;1.85;;;;;;;1.16;70.59;92613.97;2044795;70;20689;-71
2022/02/16 04:36:33;;;;;;;2.22;1.50;;;;;;;1.16;70.26;92600.84;2047609;70;20202;-68
2022/02/16 04:39:03;;;;;;;1.15;0.98;;;;;;;1.29;67.00;92597.19;2047960;70;20185;-68
2022/02/16 04:41:31;;;;;;;1.15;1.02;;;;;;;1.40;66.72;92593.28;2047515;70;20546;-68
2022/02/16 04:44:00;;;;;;;1.70;1.10;;;;;;;1.32;66.57;92589.75;2047563;70;20333;-67
2022/02/16 04:46:26;;;;;;;1.30;1.00;;;;;;;1.41;66.87;92586.44;2047132;70;20611;-67
2022/02/16 04:48:52;;;;;;;1.35;1.15;;;;;;;1.50;66.06;92583.84;2047555;70;20578;-68
2022/02/16 04:51:17;;;;;;;0.90;0.80;;;;;;;1.42;66.34;92576.81;2044770;70;20240;-68
2022/02/16 04:53:43;;;;;;;3.88;2.40;;;;;;;0.89;69.23;92581.03;2044357;70;20766;-68
2022/02/16 04:56:09;;;;;;;8.15;2.13;;;;;;;1.21;68.67;92588.09;2047362;70;20147;-70
2022/02/16 04:58:37;;;;;;;3.17;1.70;;;;;;;1.12;70.30;92594.19;2044446;70;20233;-70
2022/02/16 05:01:02;;;;;;;2.15;1.77;;;;;;;1.18;70.07;92587.16;2044514;70;20182;-68
2022/02/16 05:03:31;;;;;;;2.50;1.30;;;;;;;1.18;69.51;92581.63;2044578;70;20657;-68
2022/02/16 05:05:58;;;;;;;1.55;1.25;;;;;;;1.27;68.49;92577.56;2044693;70;20166;-68
2022/02/16 05:08:25;;;;;;;1.02;0.93;;;;;;;1.40;67.55;92574.59;2042450;70;20146;-69
2022/02/16 05:10:51;;;;;;;1.17;0.88;;;;;;;1.37;67.27;92570.16;2046982;70;20232;-70
2022/02/16 05:13:26;;;;;;;1.23;1.00;;;;;;;1.21;67.81;92568.69;2045505;70;20147;-68
2022/02/16 05:15:51;;;;;;;3.22;1.77;;;;;;;1.17;67.83;92568.31;2047735;70;20648;-68
2022/02/16 05:18:18;;;;;;;2.97;1.98;;;;;;;1.03;68.38;92562.19;2048065;70;20178;-72
2022/02/16 05:20:51;;;;;;;3.85;1.80;;;;;;;1.16;68.00;92564.06;2050716;70;20217;-68
2022/02/16 05:23:17;;;;;;;4.28;2.22;;;;;;;1.07;68.33;92550.75;2050021;70;20229;-68
2022/02/16 05:25:46;;;;;;;4.80;3.10;;;;;;;1.02;69.11;92550.38;2045484;70;20542;-68
2022/02/16 05:28:12;;;;;;;11.48;5.68;;;;;;;1.07;68.74;92540.41;2046355;70;20554;-67
2022/02/16 05:30:38;;;;;;;5.55;2.97;;;;;;;1.17;68.39;92543.34;2044423;70;20139;-68
2022/02/16 05:33:04;;;;;;;10.88;4.72;;;;;;;1.00;68.69;92554.97;2044058;70;20154;-67
2022/02/16 05:35:31;;;;;;;7.35;2.47;;;;;;;1.15;68.02;92541.16;2047115;70;20269;-72
2022/02/16 05:37:56;;;;;;;39.45;21.00;;;;;;;0.90;69.51;92540.19;2044538;70;20162;-68
2022/02/16 05:40:25;;;;;;;49.55;28.65;;;;;;;1.10;68.69;92527.44;2044404;70;20601;-67
2022/02/16 05:42:51;;;;;;;37.30;21.23;;;;;;;1.07;68.95;92534.13;2047796;70;20162;-68
2022/02/16 05:45:16;;;;;;;36.92;21.17;;;;;;;1.01;69.26;92531.53;2044460;70;20166;-70
2022/02/16 05:47:42;;;;;;;32.88;19.30;;;;;;;0.96;69.33;92533.19;2044182;70;20526;-68
2022/02/16 05:50:08;;;;;;;23.65;14.68;;;;;;;0.79;71.18;92535.00;2047276;70;20177;-69
2022/02/16 05:52:35;;;;;;;31.13;18.20;;;;;;;0.89;70.65;92550.53;2044313;70;20154;-67
2022/02/16 05:55:01;;;;;;;31.33;17.95;;;;;;;1.02;69.93;92542.06;2044588;70;20345;-68
2022/02/16 05:57:29;;;;;;;17.17;11.43;;;;;;;1.11;68.60;92540.78;2047032;70;20134;-67
2022/02/16 05:59:55;;;;;;;4.22;2.67;;;;;;;1.24;67.87;92537.81;2047577;70;20151;-67
2022/02/16 06:02:21;;;;;;;29.35;14.43;;;;;;;0.33;72.04;92548.72;2044108;70;20173;-67
2022/02/16 06:04:47;;;;;;;23.20;12.43;;;;;;;0.65;71.71;92539.97;2046825;70;20177;-68
2022/02/16 06:07:13;;;;;;;28.42;15.13;;;;;;;0.82;71.16;92540.16;2047781;70;20134;-68
2022/02/16 06:09:39;;;;;;;22.40;12.55;;;;;;;0.91;70.09;92536.13;2044387;70;20150;-69
2022/02/16 06:12:05;;;;;;;18.08;10.48;;;;;;;0.89;70.64;92528.38;2048374;70;20221;-71
2022/02/16 06:14:31;;;;;;;14.73;8.60;;;;;;;0.90;69.93;92529.09;2044992;70;20174;-71
2022/02/16 06:17:06;;;;;;;15.43;9.40;;;;;;;0.93;70.03;92531.50;2044462;70;20612;-69
2022/02/16 06:19:31;;;;;;;11.90;7.63;;;;;;;0.94;69.74;92529.47;2044481;70;20257;-69
2022/02/16 06:21:57;;;;;;;10.05;6.78;;;;;;;0.84;70.27;92534.81;2047297;70;20165;-69
2022/02/16 06:24:23;;;;;;;13.55;7.50;;;;;;;0.90;70.02;92531.88;2047406;70;20242;-70
2022/02/16 06:26:48;;;;;;;11.32;7.53;;;;;;;0.96;69.85;92524.88;2044729;70;20169;-69
2022/02/16 06:29:14;;;;;;;8.63;5.80;;;;;;;0.89;70.42;92536.69;2047527;70;20166;-70
2022/02/16 06:31:55;;;;;;;12.77;6.65;;;;;;;0.82;70.39;92531.84;2047442;70;20185;-70
2022/02/16 06:34:21;;;;;;;8.57;5.90;;;;;;;0.95;70.20;92530.94;2049460;70;20205;-69
2022/02/16 06:36:47;;;;;;;7.53;5.22;;;;;;;0.97;70.26;92528.38;2051104;70;20163;-69
2022/02/16 06:39:13;;;;;;;15.55;8.95;;;;;;;0.69;70.96;92526.50;2048127;70;20150;-71
2022/02/16 06:41:39;;;;;;;10.70;6.18;;;;;;;0.72;71.46;92534.41;2053624;70;20146;-69
2022/02/16 06:44:05;;;;;;;15.65;8.30;;;;;;;0.65;71.77;92532.38;2052769;70;20146;-70
2022/02/16 06:46:31;;;;;;;13.02;8.52;;;;;;;0.77;70.41;92519.66;2050989;70;20173;-71
2022/02/16 06:48:57;;;;;;;13.98;8.45;;;;;;;0.65;71.00;92526.84;2048582;70;20150;-71
2022/02/16 06:51:23;;;;;;;12.85;7.90;;;;;;;0.79;71.43;92524.66;2054239;69;20272;-72
2022/02/16 06:53:55;;;;;;;11.98;8.00;;;;;;;0.79;71.16;92521.16;2054194;70;20150;-70
2022/02/16 06:56:26;;;;;;;18.48;12.05;;;;;;;0.81;71.86;92515.78;2054197;70;20229;-70
2022/02/16 06:59:19;;;;;;;22.85;12.27;;;;;;;0.92;71.77;92524.50;2053621;69;20264;-69
2022/02/16 07:01:48;;;;;;;20.92;10.75;;;;;;;1.02;71.19;92525.41;2047567;70;20178;-71
2022/02/16 07:04:14;;;;;;;16.02;8.05;;;;;;;0.94;71.45;92530.22;2048607;70;20158;-70
2022/02/16 07:06:40;;;;;;;21.48;10.27;;;;;;;1.10;70.62;92528.22;2050573;70;20154;-71
2022/02/16 07:09:11;;;;;;;16.38;8.73;;;;;;;1.21;71.00;92521.53;2048110;70;20139;-72
2022/02/16 07:11:39;;;;;;;9.68;6.10;;;;;;;1.26;71.16;92523.41;2047975;70;20144;-73
2022/02/16 07:14:04;;;;;;;17.25;10.00;;;;;;;1.02;71.51;92530.97;2047363;70;20154;-72
2022/02/16 07:16:31;;;;;;;17.73;9.50;;;;;;;1.26;71.59;92520.63;2045424;70;20155;-69
2022/02/16 07:18:56;;;;;;;17.55;10.40;;;;;;;1.35;71.68;92520.06;2048309;70;20157;-73
2022/02/16 07:21:26;;;;;;;18.67;9.38;;;;;;;1.45;71.65;92514.69;2050105;70;20150;-69
2022/02/16 07:23:54;;;;;;;18.08;10.55;;;;;;;1.46;71.78;92516.91;2048111;70;20151;-69
2022/02/16 07:26:21;;;;;;;18.52;10.40;;;;;;;1.51;71.55;92496.56;2048584;70;20670;-69
2022/02/16 07:28:46;;;;;;;17.55;11.73;;;;;;;1.59;71.35;92493.75;2048090;70;20206;-70
2022/02/16 07:31:13;;;;;;;13.02;7.82;;;;;;;1.71;69.62;92480.97;2050695;70;20147;-69
2022/02/16 07:33:39;;;;;;;13.85;9.13;;;;;;;1.48;70.59;92481.03;2050789;70;20154;-70
2022/02/16 07:36:05;;;;;;;19.20;10.85;;;;;;;1.50;71.56;92477.69;2048045;70;20221;-70
2022/02/16 07:38:31;;;;;;;23.00;13.18;;;;;;;1.69;70.47;92477.28;2048086;70;20222;-69
2022/02/16 07:41:00;;;;;;;19.27;9.75;;;;;;;1.65;70.74;92477.69;2047364;70;20150;-70
2022/02/16 07:43:28;;;;;;;20.02;11.73;;;;;;;1.88;70.23;92480.41;2047564;70;20151;-71
2022/02/16 07:46:06;;;;;;;23.30;12.90;;;;;;;2.15;69.72;92469.53;2045255;70;20146;-71
2022/02/16 07:48:34;;;;;;;21.05;12.88;;;;;;;2.16;70.41;92464.75;2044812;70;20142;-69
2022/02/16 07:51:10;;;;;;;20.83;11.90;;;;;;;2.38;70.20;92477.03;2047538;70;20254;-71
2022/02/16 07:53:55;;;;;;;32.22;13.20;;;;;;;2.02;71.03;92475.34;2045423;70;20146;-72
2022/02/16 07:56:21;;;;;;;23.60;13.02;;;;;;;2.37;69.73;92464.44;2047345;70;20167;-71
2022/02/16 07:58:46;;;;;;;22.50;12.27;;;;;;;2.55;69.38;92468.78;2045947;70;20487;-71
2022/02/16 08:01:12;;;;;;;31.40;15.45;;;;;;;2.28;70.43;92472.06;2050377;70;20638;-71
2022/02/16 08:03:41;;;;;;;25.88;12.15;;;;;;;2.40;70.41;92480.00;2048024;70;20139;-71
2022/02/16 08:06:07;;;;;;;20.60;10.13;;;;;;;2.67;70.53;92469.09;2048040;70;20151;-71
2022/02/16 08:08:32;;;;;;;18.23;10.00;;;;;;;2.94;68.32;92480.41;2048129;70;20157;-71
2022/02/16 08:10:58;;;;;;;16.13;9.93;;;;;;;3.17;66.05;92474.69;2047974;70;20495;-72
2022/02/16 08:13:27;;;;;;;26.35;10.93;;;;;;;3.19;67.86;92470.03;2050528;70;20151;-75
2022/02/16 08:16:15;;;;;;;18.23;11.43;;;;;;;3.31;68.56;92457.13;2048288;70;20245;-70
2022/02/16 08:18:55;;;;;;;15.45;9.35;;;;;;;3.41;67.32;92450.94;2047962;70;20207;-70
2022/02/16 08:21:21;;;;;;;14.35;8.63;;;;;;;3.58;65.14;92450.94;2048047;70;20186;-72
2022/02/16 08:23:48;;;;;;;16.50;9.73;;;;;;;3.34;65.66;92454.50;2047980;70;20538;-72
2022/02/16 08:26:14;;;;;;;20.42;11.15;;;;;;;2.31;69.58;92452.81;2050750;70;20171;-71
2022/02/16 08:28:40;;;;;;;19.80;10.02;;;;;;;3.21;68.38;92455.56;2050655;70;20154;-71
2022/02/16 08:31:05;;;;;;;21.58;11.57;;;;;;;3.46;66.59;92456.25;2047976;70;20154;-72
2022/02/16 08:33:53;;;;;;;19.10;10.75;;;;;;;3.22;67.14;92445.91;2047972;70;20153;-71
2022/02/16 08:36:19;;;;;;;20.30;10.40;;;;;;;3.56;67.39;92445.94;2047914;70;20167;-71
2022/02/16 08:38:47;;;;;;;16.02;9.63;;;;;;;3.74;65.27;92445.97;2048618;70;20233;-71
2022/02/16 08:41:13;;;;;;;16.35;9.98;;;;;;;3.84;64.95;92443.97;2048452;70;20158;-70
2022/02/16 08:43:39;;;;;;;17.08;9.60;;;;;;;3.83;65.86;92436.94;2048454;70;20155;-71
2022/02/16 08:46:04;;;;;;;18.38;10.85;;;;;;;3.77;63.97;92433.69;2048340;70;20143;-72
2022/02/16 08:48:30;;;;;;;15.02;9.30;;;;;;;3.82;64.69;92424.34;2048511;70;20154;-71
2022/02/16 08:50:57;;;;;;;17.85;10.68;;;;;;;4.05;63.98;92422.03;2050675;70;20138;-71
2022/02/16 08:53:22;;;;;;;13.93;8.10;;;;;;;3.79;64.30;92417.13;2048244;70;20161;-69
2022/02/16 08:55:49;;;;;;;13.15;8.38;;;;;;;3.61;64.29;92421.22;2048352;70;20159;-71
2022/02/16 08:58:15;;;;;;;12.98;7.53;;;;;;;4.01;64.94;92418.19;2048447;70;20241;-69
2022/02/16 09:00:42;;;;;;;11.70;6.88;;;;;;;4.00;63.36;92420.22;2050572;70;20626;-71
2022/02/16 09:03:07;;;;;;;11.00;6.43;;;;;;;4.32;63.64;92427.63;2051580;70;20567;-73
2022/02/16 09:05:34;;;;;;;13.60;7.50;;;;;;;4.48;62.67;92425.38;2051883;70;20154;-75
2022/02/16 09:08:03;;;;;;;12.93;7.90;;;;;;;4.58;61.96;92417.06;2048576;70;20149;-69
2022/02/16 09:10:28;;;;;;;13.60;8.38;;;;;;;4.65;62.52;92407.13;2051694;70;20134;-70
2022/02/16 09:12:54;;;;;;;13.10;8.25;;;;;;;4.68;62.56;92389.97;2051834;70;20229;-70
2022/02/16 09:15:25;;;;;;;14.75;8.43;;;;;;;4.39;62.61;92395.41;2051831;70;20242;-72
2022/02/16 09:17:55;;;;;;;16.20;9.13;;;;;;;4.72;62.02;92384.72;2051617;70;20578;-70
2022/02/16 09:20:22;;;;;;;13.93;8.45;;;;;;;4.53;63.01;92390.91;2050860;70;20606;-71
2022/02/16 09:22:48;;;;;;;17.38;9.00;;;;;;;4.52;63.25;92386.66;2048145;70;20280;-72
2022/02/16 09:25:14;;;;;;;12.18;6.93;;;;;;;4.90;61.96;92374.19;2051592;70;20206;-72
2022/02/16 09:27:39;;;;;;;9.73;5.28;;;;;;;5.05;60.50;92379.53;2051659;70;20173;-71
2022/02/16 09:30:06;;;;;;;13.55;8.20;;;;;;;4.99;60.06;92372.75;2051693;70;20150;-72
2022/02/16 09:32:32;;;;;;;19.60;10.90;;;;;;;5.37;59.63;92363.75;2051013;70;20310;-73
2022/02/16 09:34:58;;;;;;;16.02;9.43;;;;;;;5.28;58.63;92359.63;2051675;70;20499;-72
2022/02/16 09:37:24;;;;;;;9.77;5.78;;;;;;;5.43;58.27;92357.88;2051694;70;20601;-74
2022/02/16 09:39:51;;;;;;;9.07;5.05;;;;;;;4.73;57.22;92363.16;2051687;70;20158;-74
2022/02/16 09:42:17;;;;;;;46.00;21.38;;;;;;;5.03;56.77;92359.13;2051681;70;20157;-73
2022/02/16 09:45:00;;;;;;;60.63;28.33;;;;;;;4.90;55.13;92363.03;2051641;70;20134;-71
2022/02/16 09:47:27;;;;;;;20.70;9.95;;;;;;;5.28;56.04;92370.06;2051636;70;20146;-73
2022/02/16 09:49:53;;;;;;;12.80;6.85;;;;;;;5.27;55.70;92385.34;2045640;70;20258;-72
2022/02/16 09:52:22;;;;;;;16.85;8.30;;;;;;;5.51;56.82;92364.06;2051646;70;20684;-72
2022/02/16 09:54:48;;;;;;;15.15;7.13;;;;;;;5.72;55.55;92366.25;2051667;70;20157;-71
2022/02/16 09:57:14;;;;;;;14.45;6.78;;;;;;;5.74;55.96;92355.25;2051083;70;20617;-72
2022/02/16 09:59:41;;;;;;;9.35;6.00;;;;;;;5.74;54.82;92358.78;2048258;70;20185;-71
2022/02/16 10:02:12;;;;;;;3.92;2.42;;;;;;;5.62;52.00;92360.69;2051514;70;20615;-70
2022/02/16 10:04:42;;;;;;;6.82;3.55;;;;;;;5.86;51.42;92348.50;2051558;70;20153;-71
2022/02/16 10:07:23;;;;;;;4.50;2.90;;;;;;;5.93;51.72;92346.16;2051404;70;20614;-72
2022/02/16 10:09:49;;;;;;;5.63;3.55;;;;;;;5.95;51.62;92340.72;2051236;70;20161;-73
2022/02/16 10:12:15;;;;;;;6.05;4.00;;;;;;;6.31;51.51;92339.75;2051294;70;20189;-71
2022/02/16 10:14:41;;;;;;;5.30;3.45;;;;;;;6.00;51.23;92337.63;2051163;70;20172;-71
2022/02/16 10:17:24;;;;;;;12.52;4.60;;;;;;;5.91;50.31;92341.13;2051163;70;20620;-70
2022/02/16 10:19:51;;;;;;;6.05;3.95;;;;;;;5.59;52.54;92336.75;2051641;70;20253;-73
2022/02/16 10:22:19;;;;;;;6.00;3.30;;;;;;;5.65;51.89;92326.00;2052039;70;20134;-70
2022/02/16 10:24:45;;;;;;;8.57;4.70;;;;;;;6.07;52.15;92316.44;2052069;70;20138;-74
2022/02/16 10:27:12;;;;;;;11.48;3.88;;;;;;;6.35;51.92;92312.09;2052067;70;20182;-71
2022/02/16 10:29:38;;;;;;;3.95;2.33;;;;;;;6.31;52.09;92306.22;2052018;70;20252;-72
2022/02/16 10:32:05;;;;;;;3.55;2.13;;;;;;;6.23;51.21;92312.00;2051890;70;20637;-70
2022/02/16 10:34:49;;;;;;;6.90;2.28;;;;;;;6.27;51.87;92303.88;2048714;70;20237;-72
2022/02/16 10:37:18;;;;;;;2.58;1.65;;;;;;;6.19;50.92;92299.78;2052074;70;20146;-72
2022/02/16 10:40:15;;;;;;;2.08;1.88;;;;;;;6.78;48.98;92309.41;2052178;70;20154;-71
2022/02/16 10:42:54;;;;;;;4.43;2.08;;;;;;;7.10;49.27;92300.44;2048750;70;20500;-70
2022/02/16 10:45:21;;;;;;;3.08;2.13;;;;;;;7.45;48.51;92302.69;2052145;70;20154;-70
2022/02/16 10:47:59;;;;;;;8.20;4.32;;;;;;;6.96;48.81;92285.47;2051404;70;20142;-70
2022/02/16 10:50:28;;;;;;;5.30;2.85;;;;;;;7.09;48.53;92276.56;2051960;70;20150;-70
2022/02/16 10:53:01;;;;;;;4.53;2.80;;;;;;;6.98;46.07;92271.63;2051943;70;20154;-71
2022/02/16 10:55:40;;;;;;;5.32;2.30;;;;;;;6.96;46.51;92273.53;2048723;70;20173;-70
2022/02/16 10:58:12;;;;;;;3.13;1.85;;;;;;;7.07;46.26;92270.09;2052135;70;20150;-74
2022/02/16 11:00:39;;;;;;;4.60;2.08;;;;;;;7.32;46.23;92264.75;2051900;70;20149;-74
2022/02/16 11:03:06;;;;;;;5.00;2.13;;;;;;;7.34;45.14;92261.38;2051812;70;20145;-70
2022/02/16 11:05:43;;;;;;;6.32;2.47;;;;;;;7.24;45.87;92267.06;2051944;70;20173;-75
2022/02/16 11:08:16;;;;;;;6.15;2.30;;;;;;;7.39;46.95;92263.84;2048725;70;20142;-71
2022/02/16 11:10:45;;;;;;;8.10;2.88;;;;;;;7.25;46.15;92262.91;2051993;70;20138;-71
2022/02/16 11:13:15;;;;;;;9.00;2.70;;;;;;;6.67;46.37;92260.44;2048667;70;20134;-71
2022/02/16 11:15:41;;;;;;;3.95;2.33;;;;;;;7.00;47.40;92245.84;2051934;70;20146;-73
2022/02/16 11:18:15;;;;;;;3.78;1.85;;;;;;;6.76;47.25;92242.88;2051819;70;20216;-72
2022/02/16 11:20:42;;;;;;;3.00;1.98;;;;;;;7.02;48.15;92238.31;2051957;70;20146;-72
2022/02/16 11:23:08;;;;;;;8.32;2.17;;;;;;;7.21;47.36;92242.31;2051928;70;20527;-72
2022/02/16 11:25:40;;;;;;;7.05;2.33;;;;;;;7.34;47.91;92238.97;2051924;70;20142;-73
2022/02/16 11:28:11;;;;;;;4.22;2.50;;;;;;;7.47;48.29;92237.69;2051928;70;20142;-73
2022/02/16 11:30:48;;;;;;;13.77;5.93;;;;;;;7.46;47.58;92225.75;2052074;70;20145;-71
2022/02/16 11:33:24;;;;;;;8.77;3.95;;;;;;;7.11;47.96;92231.91;2051660;70;20475;-69
2022/02/16 11:35:52;;;;;;;9.23;3.45;;;;;;;6.81;47.26;92236.22;2052031;70;20166;-71
2022/02/16 11:38:21;;;;;;;20.15;6.70;;;;;;;6.86;46.99;92235.16;2052075;70;20150;-73